Time;durP1;ratioP1;P1;durP2;ratioP2;P2;SDS_P1;SDS_P2;PMS_P1;PMS_P2;Temp;Humidity;BMP_temperature;BMP_pressure;BME280_temperature;BME280_humidity;BME280_pressure;Samples;Min_cycle;Max_cycle;Signal;HPM_P1;HPM_P2
2022/03/30 00:01:24;;;;;;;1999.90;999.90;;;4.00;99.90;;;;;;5012601;28;20511;-72
2022/03/30 00:03:52;;;;;;;1999.90;999.90;;;4.00;99.90;;;;;;5012791;28;20456;-72
2022/03/30 00:06:19;;;;;;;1999.90;999.90;;;4.00;99.90;;;;;;5012102;28;20487;-71
2022/03/30 00:08:46;;;;;;;1999.90;999.90;;;4.00;99.90;;;;;;5012602;28;20460;-71
2022/03/30 00:11:13;;;;;;;1999.90;999.90;;;4.00;99.90;;;;;;5012931;28;20451;-72
2022/03/30 00:13:40;;;;;;;1999.90;999.90;;;3.90;99.90;;;;;;5012806;28;20506;-72
2022/03/30 00:16:08;;;;;;;1999.90;999.90;;;3.90;99.90;;;;;;5012733;28;20479;-71
2022/03/30 00:18:35;;;;;;;1999.90;999.90;;;3.90;99.90;;;;;;5012661;28;20460;-72
2022/03/30 00:21:04;;;;;;;1999.90;999.90;;;3.90;99.90;;;;;;5012383;28;20940;-72
2022/03/30 00:23:31;;;;;;;1999.90;999.90;;;3.90;99.90;;;;;;5012573;28;20543;-71
2022/03/30 00:25:57;;;;;;;1999.90;999.90;;;3.90;99.90;;;;;;5012181;28;20526;-72
2022/03/30 00:28:27;;;;;;;1999.90;999.90;;;3.90;99.90;;;;;;5010801;28;20502;-72
2022/03/30 00:30:54;;;;;;;1999.90;999.90;;;3.80;99.90;;;;;;5010608;28;20823;-72
2022/03/30 00:33:20;;;;;;;1999.90;999.90;;;3.50;99.90;;;;;;5010494;28;20448;-73
2022/03/30 00:35:47;;;;;;;1999.90;999.90;;;3.20;99.90;;;;;;5010222;28;20472;-73
2022/03/30 00:38:15;;;;;;;1999.90;999.90;;;3.20;99.90;;;;;;5011779;28;20484;-71
2022/03/30 00:40:42;;;;;;;1999.90;999.90;;;3.20;99.90;;;;;;5014395;28;20975;-71
2022/03/30 00:43:08;;;;;;;1999.90;999.90;;;3.30;99.90;;;;;;5014712;28;20452;-71
2022/03/30 00:45:35;;;;;;;1999.90;999.90;;;3.30;99.90;;;;;;5016355;28;20472;-71
2022/03/30 00:48:02;;;;;;;1999.90;999.90;;;3.40;99.90;;;;;;5015541;28;20936;-73
2022/03/30 00:50:28;;;;;;;1999.90;999.90;;;3.30;99.90;;;;;;5015931;28;20510;-73
2022/03/30 00:52:56;;;;;;;1999.90;999.90;;;3.00;99.90;;;;;;5015323;28;20521;-73
2022/03/30 00:55:25;;;;;;;1999.90;999.90;;;2.90;99.90;;;;;;5015451;28;20479;-74
2022/03/30 00:57:54;;;;;;;1999.90;999.90;;;2.90;99.90;;;;;;5014577;28;20984;-73
2022/03/30 01:00:21;;;;;;;1999.90;999.90;;;3.00;99.90;;;;;;5015673;28;20807;-72
2022/03/30 01:02:49;;;;;;;1999.90;999.90;;;3.00;99.90;;;;;;5015303;28;20502;-73
2022/03/30 01:05:16;;;;;;;1999.90;999.90;;;2.90;99.90;;;;;;5015219;28;20480;-73
2022/03/30 01:07:43;;;;;;;1999.90;999.90;;;2.90;99.90;;;;;;5015137;28;20543;-73
2022/03/30 01:10:11;;;;;;;1999.90;999.90;;;2.70;99.90;;;;;;5015521;28;20486;-72
2022/03/30 01:12:40;;;;;;;1999.90;999.90;;;2.70;99.90;;;;;;5015121;28;20510;-72
2022/03/30 01:15:08;;;;;;;1999.90;999.90;;;2.50;99.90;;;;;;5015398;28;20487;-73
2022/03/30 01:17:35;;;;;;;1999.90;999.90;;;2.60;99.90;;;;;;5014806;28;20509;-73
2022/03/30 01:20:02;;;;;;;1999.90;999.90;;;2.60;99.90;;;;;;5015121;28;20448;-73
2022/03/30 01:22:30;;;;;;;1999.90;999.90;;;2.60;99.90;;;;;;5014366;28;20455;-73
2022/03/30 01:24:57;;;;;;;1999.90;999.90;;;2.70;99.90;;;;;;5014872;28;20472;-74
2022/03/30 01:27:24;;;;;;;1999.90;999.90;;;2.70;99.90;;;;;;5015620;28;20483;-73
2022/03/30 01:32:37;;;;;;;1999.90;999.90;;;2.10;99.90;;;;;;5015781;28;20507;-72
2022/03/30 01:35:06;;;;;;;1999.90;999.90;;;2.00;99.90;;;;;;5014577;28;20475;-74
2022/03/30 01:37:34;;;;;;;1999.90;999.90;;;2.10;99.90;;;;;;5014163;28;20476;-73
2022/03/30 01:40:04;;;;;;;1999.90;999.90;;;2.10;99.90;;;;;;5014565;28;20448;-73
2022/03/30 01:42:32;;;;;;;1999.90;999.90;;;2.20;99.90;;;;;;5015053;28;20475;-71
2022/03/30 01:44:59;;;;;;;1999.90;999.90;;;1.90;99.90;;;;;;5015467;28;20479;-71
2022/03/30 01:47:26;;;;;;;1999.90;999.90;;;1.60;99.90;;;;;;5015184;28;21014;-71
2022/03/30 01:49:54;;;;;;;1999.90;999.90;;;1.70;99.90;;;;;;5013873;28;20460;-72
2022/03/30 01:52:21;;;;;;;1999.90;999.90;;;1.80;99.90;;;;;;5014735;28;21011;-73
2022/03/30 01:54:49;;;;;;;1999.90;999.90;;;1.70;99.90;;;;;;5015004;28;20472;-71
2022/03/30 01:57:16;;;;;;;1999.90;999.90;;;1.60;99.90;;;;;;5015086;28;20487;-70
2022/03/30 01:59:45;;;;;;;1999.90;999.90;;;1.70;99.90;;;;;;5014545;28;20460;-72
2022/03/30 02:02:12;;;;;;;1999.90;999.90;;;1.60;99.90;;;;;;5014537;28;20947;-72
2022/03/30 02:04:39;;;;;;;1999.90;999.90;;;1.70;99.90;;;;;;5014098;28;20479;-74
2022/03/30 02:07:09;;;;;;;1999.90;999.90;;;1.70;99.90;;;;;;5014705;28;20448;-73
2022/03/30 02:09:36;;;;;;;1999.90;999.90;;;1.90;99.90;;;;;;5013442;28;20449;-73
2022/03/30 02:12:05;;;;;;;1999.90;999.90;;;2.00;99.90;;;;;;5014202;28;20452;-71
2022/03/30 02:14:32;;;;;;;1999.90;999.90;;;2.00;99.90;;;;;;5013897;28;20476;-72
2022/03/30 02:16:58;;;;;;;1999.90;999.90;;;2.10;99.90;;;;;;5014524;28;20484;-73
2022/03/30 02:19:25;;;;;;;1999.90;999.90;;;2.10;99.90;;;;;;5013560;28;20864;-72
2022/03/30 02:21:52;;;;;;;1999.90;999.90;;;2.00;99.90;;;;;;5013518;28;20479;-72
2022/03/30 02:24:19;;;;;;;1999.90;999.90;;;1.80;99.90;;;;;;5014262;28;21014;-71
2022/03/30 02:26:47;;;;;;;1999.90;999.90;;;1.70;99.90;;;;;;5014593;28;20452;-74
2022/03/30 02:29:15;;;;;;;1999.90;999.90;;;1.70;99.90;;;;;;5014666;28;20967;-71
2022/03/30 02:31:42;;;;;;;1999.90;999.90;;;1.60;99.90;;;;;;5013712;28;20448;-72
2022/03/30 02:34:09;;;;;;;1999.90;999.90;;;1.70;99.90;;;;;;5014374;28;20452;-72
2022/03/30 02:36:36;;;;;;;1999.90;999.90;;;1.60;99.90;;;;;;5013520;28;20544;-69
2022/03/30 02:39:05;;;;;;;1999.90;999.90;;;1.60;99.90;;;;;;5014229;28;20452;-72
2022/03/30 02:41:31;;;;;;;1999.90;999.90;;;1.60;99.90;;;;;;5014026;28;20444;-73
2022/03/30 02:43:58;;;;;;;1999.90;999.90;;;1.50;99.90;;;;;;5014368;28;20452;-72
2022/03/30 02:46:26;;;;;;;1999.90;999.90;;;1.50;99.90;;;;;;5013342;28;20472;-71
2022/03/30 02:48:53;;;;;;;1999.90;999.90;;;1.70;99.90;;;;;;5014238;28;20449;-71
2022/03/30 02:51:20;;;;;;;1999.90;999.90;;;1.40;99.90;;;;;;5013805;28;20502;-74
2022/03/30 02:53:46;;;;;;;1999.90;999.90;;;1.40;99.90;;;;;;5014311;28;20531;-72
2022/03/30 02:56:13;;;;;;;1999.90;999.90;;;1.50;99.90;;;;;;5013601;28;20468;-72
2022/03/30 02:58:40;;;;;;;1999.90;999.90;;;1.50;99.90;;;;;;5013709;28;20487;-72
2022/03/30 03:01:07;;;;;;;1999.90;999.90;;;1.50;99.90;;;;;;5013053;28;20440;-72
2022/03/30 03:03:35;;;;;;;1999.90;999.90;;;1.50;99.90;;;;;;5013844;28;20444;-71
2022/03/30 03:06:02;;;;;;;1999.90;999.90;;;1.40;99.90;;;;;;5013498;28;20472;-71
2022/03/30 03:08:29;;;;;;;1999.90;999.90;;;1.40;99.90;;;;;;5013836;28;20456;-71
2022/03/30 03:10:56;;;;;;;1999.90;999.90;;;1.40;99.90;;;;;;5013328;28;20498;-71
2022/03/30 03:13:23;;;;;;;1999.90;999.90;;;1.40;99.90;;;;;;5014181;28;20974;-72
2022/03/30 03:15:50;;;;;;;1999.90;999.90;;;1.40;99.90;;;;;;5013380;28;20534;-71
2022/03/30 03:18:16;;;;;;;1999.90;999.90;;;1.30;99.90;;;;;;5014329;28;20486;-70
2022/03/30 03:20:46;;;;;;;1999.90;999.90;;;1.20;99.90;;;;;;5013801;28;20831;-68
2022/03/30 03:23:14;;;;;;;1999.90;999.90;;;1.30;99.90;;;;;;5013122;28;20448;-71
2022/03/30 03:25:41;;;;;;;1999.90;999.90;;;1.40;99.90;;;;;;5014011;28;20484;-71
2022/03/30 03:28:09;;;;;;;1999.90;999.90;;;1.30;99.90;;;;;;5014217;28;20448;-71
2022/03/30 03:30:36;;;;;;;1999.90;999.90;;;1.40;99.90;;;;;;5013760;28;20506;-69
2022/03/30 03:33:03;;;;;;;1999.90;999.90;;;1.40;99.90;;;;;;5013264;28;20455;-71
2022/03/30 03:35:31;;;;;;;1999.90;999.90;;;1.20;99.90;;;;;;5014174;28;20984;-71
2022/03/30 03:38:00;;;;;;;1999.90;999.90;;;1.10;99.90;;;;;;5013252;28;20482;-71
2022/03/30 03:40:30;;;;;;;1999.90;999.90;;;1.10;99.90;;;;;;5014169;28;20463;-71
2022/03/30 03:42:57;;;;;;;1999.90;999.90;;;1.20;99.90;;;;;;5013432;28;20528;-74
2022/03/30 03:45:24;;;;;;;1999.90;999.90;;;1.20;99.90;;;;;;5013686;28;20479;-72
2022/03/30 03:47:52;;;;;;;1999.90;999.90;;;1.10;99.90;;;;;;5013442;28;20448;-73
2022/03/30 03:50:19;;;;;;;1999.90;999.90;;;1.20;99.90;;;;;;5013538;28;20451;-71
2022/03/30 03:52:45;;;;;;;1999.90;999.90;;;1.20;99.90;;;;;;5013120;28;20456;-71
2022/03/30 03:55:14;;;;;;;1999.90;999.90;;;1.20;99.90;;;;;;5013978;28;20582;-72
2022/03/30 03:57:42;;;;;;;1999.90;999.90;;;1.10;99.90;;;;;;5013611;28;20488;-71
2022/03/30 04:00:10;;;;;;;1999.90;999.90;;;1.00;99.90;;;;;;5013974;28;20448;-70
2022/03/30 04:02:37;;;;;;;1999.90;999.90;;;0.90;99.90;;;;;;5014189;28;20457;-71
2022/03/30 04:05:05;;;;;;;1999.90;999.90;;;0.90;99.90;;;;;;5013603;28;20905;-70
2022/03/30 04:07:32;;;;;;;1999.90;999.90;;;0.80;99.90;;;;;;5013028;28;20448;-72
2022/03/30 04:09:59;;;;;;;1999.90;999.90;;;1.00;99.90;;;;;;5013375;28;20483;-72
2022/03/30 04:12:28;;;;;;;1999.90;999.90;;;1.10;99.90;;;;;;5013354;28;20460;-74
2022/03/30 04:14:54;;;;;;;1999.90;999.90;;;1.10;99.90;;;;;;5017589;28;20475;-72
2022/03/30 04:17:21;;;;;;;1999.90;999.90;;;1.20;99.90;;;;;;5016848;28;20452;-71
2022/03/30 04:19:48;;;;;;;1999.90;999.90;;;1.20;99.90;;;;;;5017200;28;20478;-71
2022/03/30 04:22:15;;;;;;;1999.90;999.90;;;1.20;99.90;;;;;;5016193;28;20460;-72
2022/03/30 04:24:42;;;;;;;1999.90;999.90;;;1.30;99.90;;;;;;5016116;28;20912;-71
2022/03/30 04:27:09;;;;;;;1999.90;999.90;;;1.30;99.90;;;;;;5017378;28;20502;-70
2022/03/30 04:29:37;;;;;;;1999.90;999.90;;;1.30;99.90;;;;;;5016699;28;20451;-72
2022/03/30 04:32:04;;;;;;;1999.90;999.90;;;1.30;99.90;;;;;;5017267;28;20452;-72
2022/03/30 04:34:31;;;;;;;1999.90;999.90;;;1.30;99.90;;;;;;5016543;28;20514;-72
2022/03/30 04:36:58;;;;;;;1999.90;999.90;;;1.40;99.90;;;;;;5016519;28;20487;-71
2022/03/30 04:39:24;;;;;;;1999.90;999.90;;;1.40;99.90;;;;;;5016940;28;20495;-70
2022/03/30 04:41:53;;;;;;;1999.90;999.90;;;1.30;99.90;;;;;;5017057;28;20502;-71
2022/03/30 04:44:21;;;;;;;1999.90;999.90;;;1.30;99.90;;;;;;5016167;28;21174;-72
2022/03/30 04:46:49;;;;;;;1999.90;999.90;;;1.10;99.90;;;;;;5017293;28;20448;-71
2022/03/30 04:49:16;;;;;;;1999.90;999.90;;;1.00;99.90;;;;;;5016561;28;21175;-70
2022/03/30 04:51:43;;;;;;;1999.90;999.90;;;1.10;99.90;;;;;;5016530;28;20456;-70
2022/03/30 04:54:10;;;;;;;1999.90;999.90;;;1.20;99.90;;;;;;5016396;28;20455;-71
2022/03/30 04:56:37;;;;;;;1999.90;999.90;;;1.30;99.90;;;;;;5017137;28;20448;-72
2022/03/30 04:59:04;;;;;;;1999.90;999.90;;;1.30;99.90;;;;;;5006214;28;20984;-71
2022/03/30 05:01:30;;;;;;;1999.90;999.90;;;1.30;99.90;;;;;;5017022;28;20459;-70
2022/03/30 05:03:58;;;;;;;1999.90;999.90;;;1.20;99.90;;;;;;5017137;28;20452;-70
2022/03/30 05:06:25;;;;;;;1999.90;999.90;;;1.20;99.90;;;;;;5040460;22;20748;-70
2022/03/30 05:08:52;;;;;;;1999.90;999.90;;;1.30;99.90;;;;;;5033997;28;20443;-69
2022/03/30 05:11:18;;;;;;;1999.90;999.90;;;1.30;99.90;;;;;;5029857;28;20505;-70
2022/03/30 05:13:45;;;;;;;1999.90;999.90;;;1.40;99.90;;;;;;5029298;28;21002;-69
2022/03/30 05:16:12;;;;;;;1999.90;999.90;;;1.90;99.90;;;;;;5024557;28;20525;-70
2022/03/30 05:18:39;;;;;;;1999.90;999.90;;;2.00;99.90;;;;;;5023002;28;21008;-69
2022/03/30 05:21:07;;;;;;;1999.90;999.90;;;1.40;99.90;;;;;;5022152;28;20452;-70
2022/03/30 05:23:36;;;;;;;1999.90;999.90;;;1.50;99.90;;;;;;5023184;28;20448;-70
2022/03/30 05:26:03;;;;;;;1999.90;999.90;;;1.60;99.90;;;;;;5024321;28;20908;-70
2022/03/30 05:28:30;;;;;;;1999.90;999.90;;;1.60;99.90;;;;;;5020116;28;20896;-70
2022/03/30 05:30:57;;;;;;;1999.90;999.90;;;1.80;99.90;;;;;;5022491;28;20873;-67
2022/03/30 05:33:23;;;;;;;1999.90;999.90;;;1.90;99.90;;;;;;5016003;28;20963;-67
2022/03/30 05:35:51;;;;;;;1999.90;999.90;;;2.00;99.90;;;;;;5014929;28;20502;-67
2022/03/30 05:38:19;;;;;;;1999.90;999.90;;;2.10;99.90;;;;;;5013245;28;21016;-67
2022/03/30 05:40:45;;;;;;;1999.90;999.90;;;2.10;99.90;;;;;;5014012;28;20501;-67
2022/03/30 05:43:12;;;;;;;1999.90;999.90;;;2.20;99.90;;;;;;5013166;28;21168;-67
2022/03/30 05:45:39;;;;;;;1999.90;999.90;;;2.10;99.90;;;;;;5013532;28;20478;-67
2022/03/30 05:48:06;;;;;;;1999.90;999.90;;;2.30;99.90;;;;;;5013382;28;20498;-66
2022/03/30 05:50:32;;;;;;;1999.90;999.90;;;2.30;99.90;;;;;;5008495;28;21154;-68
2022/03/30 05:52:59;;;;;;;1999.90;999.90;;;2.30;99.90;;;;;;5013518;28;20995;-67
2022/03/30 05:55:29;;;;;;;1999.90;999.90;;;2.40;99.90;;;;;;5013096;28;20471;-67
2022/03/30 05:57:55;;;;;;;1999.90;999.90;;;2.40;99.90;;;;;;5013415;28;20510;-67
2022/03/30 06:00:22;;;;;;;1999.90;999.90;;;2.50;99.90;;;;;;5012753;28;20948;-67
2022/03/30 06:02:48;;;;;;;1999.90;999.90;;;2.60;99.90;;;;;;5013382;28;20495;-67
2022/03/30 06:05:15;;;;;;;1999.90;999.90;;;2.60;99.90;;;;;;5013230;28;20488;-67
2022/03/30 06:07:43;;;;;;;1999.90;999.90;;;2.60;99.90;;;;;;5012904;28;20448;-67
2022/03/30 06:10:10;;;;;;;1999.90;999.90;;;2.70;99.90;;;;;;5012992;28;21347;-66
2022/03/30 06:12:38;;;;;;;1999.90;999.90;;;2.80;99.90;;;;;;5013602;28;20452;-67
2022/03/30 06:15:06;;;;;;;1999.90;999.90;;;2.80;99.90;;;;;;5012104;28;20826;-68
2022/03/30 06:17:32;;;;;;;1999.90;999.90;;;3.00;99.90;;;;;;5012898;28;20456;-67
2022/03/30 06:19:59;;;;;;;1999.90;999.90;;;3.10;99.90;;;;;;5012662;28;20533;-67
2022/03/30 06:22:29;;;;;;;1999.90;999.90;;;3.30;99.90;;;;;;5012925;28;20494;-68
2022/03/30 06:24:57;;;;;;;1999.90;999.90;;;3.30;99.90;;;;;;5012917;28;20480;-67
2022/03/30 06:27:23;;;;;;;1999.90;999.90;;;3.40;99.90;;;;;;5013086;28;20506;-68
2022/03/30 06:29:51;;;;;;;1999.90;999.90;;;3.50;99.90;;;;;;5012347;28;20949;-67
2022/03/30 06:32:19;;;;;;;1999.90;999.90;;;3.60;99.90;;;;;;5001798;28;20447;-67
2022/03/30 06:34:46;;;;;;;1999.90;999.90;;;3.70;99.90;;;;;;4993858;28;20476;-68
2022/03/30 06:37:12;;;;;;;1999.90;999.90;;;3.80;99.90;;;;;;5003135;28;20458;-68
2022/03/30 06:39:39;;;;;;;1999.90;999.90;;;3.80;99.90;;;;;;5013428;28;20545;-67
2022/03/30 06:42:06;;;;;;;1999.90;999.90;;;3.80;99.90;;;;;;5012407;28;20526;-68
2022/03/30 06:44:33;;;;;;;1999.90;999.90;;;3.90;99.90;;;;;;5010667;28;20447;-66
2022/03/30 06:47:01;;;;;;;1999.90;999.90;;;3.90;99.90;;;;;;5011286;28;20947;-67
2022/03/30 06:49:28;;;;;;;1999.90;999.90;;;4.10;99.90;;;;;;5008576;28;20576;-68
2022/03/30 06:51:54;;;;;;;1999.90;999.90;;;4.10;99.90;;;;;;5012577;28;20436;-68
2022/03/30 06:54:21;;;;;;;1999.90;999.90;;;4.30;99.90;;;;;;5013006;28;20865;-68
2022/03/30 06:56:48;;;;;;;1999.90;999.90;;;4.40;99.90;;;;;;5013989;28;20468;-68
2022/03/30 06:59:14;;;;;;;1999.90;999.90;;;4.60;99.90;;;;;;5014615;28;20871;-68
2022/03/30 07:01:41;;;;;;;1999.90;999.90;;;4.80;99.90;;;;;;5016060;28;21102;-68
2022/03/30 07:04:09;;;;;;;1999.90;999.90;;;4.90;99.90;;;;;;5015274;28;20499;-68
2022/03/30 07:06:36;;;;;;;1999.90;999.90;;;5.00;99.90;;;;;;5015762;28;20531;-69
2022/03/30 07:11:46;;;;;;;1999.90;999.90;;;5.30;99.90;;;;;;5012296;28;20423;-71
2022/03/30 07:14:13;;;;;;;1999.90;999.90;;;5.50;99.90;;;;;;5007962;28;20853;-70
2022/03/30 07:16:39;;;;;;;1999.90;999.90;;;5.60;99.90;;;;;;5013062;28;20460;-71
2022/03/30 07:19:07;;;;;;;1999.90;999.90;;;5.70;99.90;;;;;;5012854;28;20488;-71
2022/03/30 07:21:34;;;;;;;1999.90;999.90;;;5.70;99.90;;;;;;5012600;28;20471;-71
2022/03/30 07:24:01;;;;;;;1999.90;999.90;;;5.70;99.90;;;;;;5012161;28;20455;-72
2022/03/30 07:26:28;;;;;;;1999.90;999.90;;;5.70;99.90;;;;;;5012576;28;20456;-72
2022/03/30 07:28:55;;;;;;;1999.90;999.90;;;5.70;99.90;;;;;;5012238;28;20440;-70
2022/03/30 07:31:21;;;;;;;1999.90;999.90;;;5.90;99.90;;;;;;5011817;28;20448;-70
2022/03/30 07:33:48;;;;;;;1999.90;999.90;;;5.90;99.90;;;;;;5012107;28;20448;-71
2022/03/30 07:36:14;;;;;;;1999.90;999.90;;;5.70;99.90;;;;;;5012088;28;21054;-72
2022/03/30 07:38:42;;;;;;;1999.90;999.90;;;5.80;99.90;;;;;;5011886;28;20887;-71
2022/03/30 07:41:09;;;;;;;1999.90;999.90;;;5.90;99.90;;;;;;5012432;28;20447;-71
2022/03/30 07:43:36;;;;;;;1999.90;999.90;;;5.80;99.90;;;;;;5012508;28;20506;-71
2022/03/30 07:46:03;;;;;;;1999.90;999.90;;;5.80;99.90;;;;;;5012212;28;20526;-71
2022/03/30 07:48:29;;;;;;;1999.90;999.90;;;5.80;99.90;;;;;;5014876;28;20440;-72
2022/03/30 07:50:56;;;;;;;1999.90;999.90;;;5.80;99.90;;;;;;5015993;28;20444;-71
2022/03/30 07:53:23;;;;;;;1999.90;999.90;;;5.90;99.90;;;;;;5016216;28;20443;-71
2022/03/30 07:55:51;;;;;;;1999.90;999.90;;;5.80;99.90;;;;;;5016331;28;20878;-71
2022/03/30 07:58:17;;;;;;;1999.90;999.90;;;6.00;99.90;;;;;;5016150;28;20881;-71
2022/03/30 08:00:44;;;;;;;1999.90;999.90;;;6.20;99.90;;;;;;5015765;28;20898;-71
2022/03/30 08:03:11;;;;;;;1999.90;999.90;;;6.20;99.90;;;;;;5016368;28;20872;-71
2022/03/30 08:05:38;;;;;;;1999.90;999.90;;;6.30;99.90;;;;;;5016061;28;20526;-71
2022/03/30 08:08:07;;;;;;;1999.90;999.90;;;6.50;99.90;;;;;;5016411;28;20439;-71
2022/03/30 08:10:35;;;;;;;1999.90;999.90;;;6.60;99.90;;;;;;5015644;28;20455;-71
2022/03/30 08:13:03;;;;;;;1999.90;999.90;;;6.60;99.90;;;;;;5015634;28;20535;-71
2022/03/30 08:15:31;;;;;;;1999.90;999.90;;;6.50;99.90;;;;;;5015940;28;20521;-71
2022/03/30 08:17:57;;;;;;;1999.90;999.90;;;6.60;99.90;;;;;;5015555;28;20448;-71
2022/03/30 08:23:10;;;;;;;1999.90;999.90;;;6.70;99.90;;;;;;5014818;28;20486;-71
2022/03/30 08:25:37;;;;;;;1999.90;999.90;;;6.80;99.90;;;;;;5015278;28;20484;-71
2022/03/30 08:28:05;;;;;;;1999.90;999.90;;;6.90;99.90;;;;;;5016010;28;20527;-71
2022/03/30 08:30:32;;;;;;;1999.90;999.90;;;7.30;99.90;;;;;;5015319;28;20428;-71
2022/03/30 08:33:00;;;;;;;1999.90;999.90;;;7.50;99.90;;;;;;5015454;28;20932;-69
2022/03/30 08:35:27;;;;;;;1999.90;999.90;;;7.80;99.90;;;;;;5016079;28;20530;-69
2022/03/30 08:37:54;;;;;;;1999.90;999.90;;;7.90;99.90;;;;;;5015563;28;21103;-69
2022/03/30 08:40:21;;;;;;;1999.90;999.90;;;7.90;99.90;;;;;;5017511;28;20571;-68
2022/03/30 08:42:49;;;;;;;1999.90;999.90;;;7.90;99.90;;;;;;5015614;28;20988;-69
2022/03/30 08:45:17;;;;;;;1999.90;999.90;;;8.00;99.90;;;;;;5016706;28;20456;-69
2022/03/30 08:47:44;;;;;;;1999.90;999.90;;;8.00;99.90;;;;;;5016278;28;20474;-69
2022/03/30 08:50:11;;;;;;;1999.90;999.90;;;8.00;99.90;;;;;;5016405;28;20526;-67
2022/03/30 08:52:37;;;;;;;1999.90;999.90;;;8.00;99.90;;;;;;5015746;28;20443;-69
2022/03/30 08:55:05;;;;;;;1999.90;999.90;;;7.90;99.90;;;;;;5015394;28;20456;-68
2022/03/30 08:57:32;;;;;;;1999.90;999.90;;;8.00;99.90;;;;;;5015107;28;20494;-68
2022/03/30 09:00:02;;;;;;;1999.90;999.90;;;8.10;99.90;;;;;;5014652;28;20511;-69
2022/03/30 09:02:41;;;;;;;1999.90;999.90;;;8.00;99.90;;;;;;5015287;28;20452;-69
2022/03/30 09:05:18;;;;;;;1999.90;999.90;;;8.00;99.90;;;;;;5015916;28;20475;-68
2022/03/30 09:07:48;;;;;;;1999.90;999.90;;;8.00;99.90;;;;;;5016319;28;20444;-69
2022/03/30 09:10:18;;;;;;;1999.90;999.90;;;8.10;99.90;;;;;;5015014;28;20449;-68
2022/03/30 09:12:46;;;;;;;1999.90;999.90;;;8.20;99.90;;;;;;5014758;28;20458;-68
2022/03/30 09:15:14;;;;;;;1999.90;999.90;;;8.50;99.90;;;;;;5014557;28;20460;-69
2022/03/30 09:17:43;;;;;;;1999.90;999.90;;;8.40;99.90;;;;;;5014888;28;20507;-69
2022/03/30 09:20:16;;;;;;;1999.90;999.90;;;8.50;99.90;;;;;;5016130;28;20534;-67
2022/03/30 09:22:45;;;;;;;1999.90;999.90;;;8.40;99.90;;;;;;5015176;28;20440;-68
2022/03/30 09:25:12;;;;;;;1999.90;999.90;;;8.40;99.90;;;;;;5014020;28;20522;-69
2022/03/30 09:27:41;;;;;;;1999.90;999.90;;;8.50;99.90;;;;;;5014231;28;20860;-68
2022/03/30 09:30:10;;;;;;;1999.90;999.90;;;8.80;99.90;;;;;;5014225;28;20467;-67
2022/03/30 09:32:39;;;;;;;1999.90;999.90;;;9.10;99.90;;;;;;5013769;28;20441;-69
2022/03/30 09:35:20;;;;;;;1999.90;999.90;;;9.10;99.90;;;;;;5014022;28;20470;-69
2022/03/30 09:38:15;;;;;;;1999.90;999.90;;;9.00;99.90;;;;;;5013462;28;20436;-69
2022/03/30 09:40:45;;;;;;;1999.90;999.90;;;9.20;99.90;;;;;;5013007;28;20484;-69
2022/03/30 09:43:14;;;;;;;1999.90;999.90;;;9.30;99.90;;;;;;5014105;28;20931;-69
2022/03/30 09:45:41;;;;;;;1999.90;999.90;;;9.40;99.90;;;;;;5014014;28;20538;-69
2022/03/30 09:48:13;;;;;;;1999.90;999.90;;;9.50;99.90;;;;;;5013995;28;20460;-68
2022/03/30 09:50:47;;;;;;;1999.90;999.90;;;9.40;99.90;;;;;;5013681;28;20502;-69
2022/03/30 09:53:16;;;;;;;1999.90;999.90;;;9.40;99.90;;;;;;5012524;28;20448;-70
2022/03/30 09:56:00;;;;;;;1999.90;999.90;;;9.30;99.90;;;;;;5013610;28;20865;-69
2022/03/30 09:58:29;;;;;;;1999.90;999.90;;;9.20;99.90;;;;;;5013410;28;20483;-69
2022/03/30 10:01:14;;;;;;;1999.90;999.90;;;9.40;99.90;;;;;;5013205;28;21167;-69
2022/03/30 10:03:44;;;;;;;1999.90;999.90;;;9.40;99.90;;;;;;5013187;28;20459;-69
2022/03/30 10:06:14;;;;;;;1999.90;999.90;;;9.60;99.90;;;;;;5013187;28;20502;-69
2022/03/30 10:08:43;;;;;;;1999.90;999.90;;;9.60;99.90;;;;;;5013884;28;20436;-69
2022/03/30 10:11:12;;;;;;;1999.90;999.90;;;9.70;99.90;;;;;;5012563;28;20523;-69
2022/03/30 10:13:40;;;;;;;1999.90;999.90;;;9.90;99.90;;;;;;5013035;28;20459;-69
2022/03/30 10:16:08;;;;;;;1999.90;999.90;;;10.00;99.90;;;;;;5013805;28;20518;-69
2022/03/30 10:18:35;;;;;;;1999.90;999.90;;;10.20;99.90;;;;;;5013633;28;20539;-69
2022/03/30 10:21:19;;;;;;;1999.90;999.90;;;10.20;99.90;;;;;;5013548;28;20476;-69
2022/03/30 10:24:18;;;;;;;1999.90;999.90;;;10.10;99.90;;;;;;5013653;28;20487;-69
2022/03/30 10:26:53;;;;;;;1999.90;999.90;;;10.20;99.90;;;;;;4979711;28;20972;-69
2022/03/30 10:29:23;;;;;;;1999.90;999.90;;;10.20;99.90;;;;;;5012813;28;20861;-69
2022/03/30 10:32:09;;;;;;;1999.90;999.90;;;10.00;99.90;;;;;;5012984;28;20452;-69
2022/03/30 10:34:42;;;;;;;1999.90;999.90;;;10.00;99.90;;;;;;5012454;28;20443;-69
2022/03/30 10:37:11;;;;;;;1999.90;999.90;;;9.90;99.90;;;;;;5012654;28;20471;-69
2022/03/30 10:40:10;;;;;;;1999.90;999.90;;;10.10;99.90;;;;;;5013291;28;20529;-69
2022/03/30 10:42:58;;;;;;;1999.90;999.90;;;10.30;99.90;;;;;;5013658;28;20432;-69
2022/03/30 10:45:26;;;;;;;1999.90;999.90;;;10.60;99.90;;;;;;5013396;28;20464;-71
2022/03/30 10:48:10;;;;;;;1999.90;999.90;;;11.00;99.90;;;;;;5014041;28;20523;-70
2022/03/30 10:50:40;;;;;;;1999.90;999.90;;;11.00;99.80;;;;;;5013210;28;20443;-69
2022/03/30 10:53:35;;;;;;;1999.90;999.90;;;11.10;99.90;;;;;;5013287;28;20836;-69
2022/03/30 10:56:28;;;;;;;1999.90;999.90;;;11.00;99.10;;;;;;5013106;28;20502;-69
2022/03/30 10:59:17;;;;;;;1999.90;999.90;;;11.10;99.30;;;;;;5013344;28;20440;-69
2022/03/30 11:01:46;;;;;;;1999.90;999.90;;;10.80;99.30;;;;;;5012587;28;20423;-69
2022/03/30 11:04:25;;;;;;;1999.90;999.90;;;10.80;99.90;;;;;;5013857;28;20444;-69
2022/03/30 11:07:40;;;;;;;1999.90;999.90;;;10.90;99.50;;;;;;5042920;23;20495;-72
2022/03/30 11:10:24;;;;;;;1999.90;999.90;;;11.20;99.00;;;;;;5034737;28;20448;-74
2022/03/30 11:12:58;;;;;;;1999.90;999.90;;;11.30;99.30;;;;;;5034870;28;20461;-73
2022/03/30 11:15:25;;;;;;;1999.90;999.90;;;11.50;99.40;;;;;;5034651;28;20456;-72
2022/03/30 11:17:53;;;;;;;1999.90;999.90;;;11.30;98.20;;;;;;5034047;28;20447;-71
2022/03/30 11:20:23;;;;;;;1999.90;999.90;;;11.50;99.00;;;;;;5033721;28;20502;-72
2022/03/30 11:22:50;;;;;;;1999.90;999.90;;;11.50;98.20;;;;;;5034294;28;20501;-71
2022/03/30 11:25:19;;;;;;;1999.90;999.90;;;11.50;98.90;;;;;;5034846;28;20454;-72
2022/03/30 11:28:14;;;;;;;1999.90;999.90;;;11.50;98.30;;;;;;5033789;28;20543;-72
2022/03/30 11:30:43;;;;;;;1999.90;999.90;;;11.30;98.60;;;;;;5034030;28;20501;-71
2022/03/30 11:33:22;;;;;;;1999.90;999.90;;;11.20;98.50;;;;;;5034804;28;20450;-75
2022/03/30 11:35:49;;;;;;;1999.90;999.90;;;11.20;98.70;;;;;;5033909;28;20554;-73
2022/03/30 11:38:23;;;;;;;1999.90;999.90;;;11.50;98.60;;;;;;5033477;28;20447;-72
2022/03/30 11:41:06;;;;;;;1999.90;999.90;;;11.20;98.70;;;;;;5034074;28;20869;-71
2022/03/30 11:45:12;;;;;;;1999.90;999.90;;;11.40;98.20;;;;;;5034140;28;20439;-71
2022/03/30 11:46:27;;;;;;;1999.90;999.90;;;11.20;97.90;;;;;;5033643;28;20986;-71
2022/03/30 11:48:54;;;;;;;1999.90;999.90;;;11.30;98.40;;;;;;5034480;28;20501;-72
2022/03/30 11:51:26;;;;;;;1999.90;999.90;;;11.50;98.60;;;;;;5033727;28;20473;-73
2022/03/30 11:54:11;;;;;;;1999.90;999.90;;;11.70;98.20;;;;;;5034047;28;20505;-73
2022/03/30 11:56:38;;;;;;;1999.90;999.90;;;11.60;97.20;;;;;;5033759;28;21029;-74
2022/03/30 11:59:07;;;;;;;1999.90;999.90;;;11.80;97.70;;;;;;5034294;28;20923;-72
2022/03/30 12:01:36;;;;;;;1999.90;999.90;;;12.00;97.40;;;;;;5034068;28;20513;-72
2022/03/30 12:04:03;;;;;;;1999.90;999.90;;;11.80;96.80;;;;;;5033731;28;21009;-73
2022/03/30 12:06:30;;;;;;;1999.90;999.90;;;11.70;96.60;;;;;;5034052;28;20473;-70
2022/03/30 12:08:58;;;;;;;1999.90;999.90;;;11.70;96.10;;;;;;5034383;28;20501;-71
2022/03/30 12:11:28;;;;;;;1999.90;999.90;;;11.60;96.40;;;;;;5034570;28;20439;-72
2022/03/30 12:13:56;;;;;;;1999.90;999.90;;;11.50;96.90;;;;;;5034265;28;20482;-71
2022/03/30 12:16:26;;;;;;;1999.90;999.90;;;11.60;97.00;;;;;;5034104;28;20554;-71
2022/03/30 12:18:55;;;;;;;1999.90;999.90;;;11.60;96.60;;;;;;5033761;28;20451;-71
2022/03/30 12:21:23;;;;;;;1999.90;999.90;;;11.80;96.00;;;;;;5033426;28;20545;-72
2022/03/30 12:23:55;;;;;;;1999.90;999.90;;;11.70;96.30;;;;;;5033667;28;20535;-71